Pagina principale
METAR-TAF:

METAR-TAF

Aeroporti :

Polokwane, Sudafrica

latitudine: 23-50-43S, longitudine: 29-27-31E, altezza: 1242 m

Osservazione

Il bollettino è stato emesso 3 ore e 9 minuti fa, alle 05:00 UTC
Vento 3 kt da sud
Temperature 12°C
Umidità 62%
Pressione 1022 hPa
Visibilità: 8000 m

METAR: FAPP 210500Z 19003KT 8000 NSC 12/05 Q1022 NOSIG

Ora: 10:09 (08:09 UTC)

Previsione

Il bollettino è stato emesso 5 ore e 9 minuti fa, alle 03:00 UTC
Previsione valida dal 21 alle 04 UTC al 21 alle 15 UTC
Vento 3 kt da direzioni variabili
Visibilità 10 km o più
nessuna nube inferiore a 1500 m e nessun cumulonembo
Evoluzione graduale
dal 21 alle 08 UTC al 21 alle 10 UTC
Vento 7 kt da nord/nord-est

TAF: FAPP 210300Z 2104/2115 VRB03KT CAVOK BECMG 2108/2110 02007KT TX30/2113Z TN12/2104Z

Osservazioni e previsioni meteorologiche di più di 4000 aeroporti (messaggi METAR e TAF).

Le stazioni disponibili sono rappresentate dai dischi gialli e rossi sulla carta.

Puntare il mouse per vedere il nome della stazione.

Clicca sopra per visualizzare le osservazioni e previsioni meteorologiche.

Per cambiare la mappa : fare clic sui pulsanti verdi con una croce nera per ingrandire, il pulsante verde con un trattino per diminuire, o sulla freccia verde per le mappe adiacenti.


METAR-TAF: